sensor_id;sensor_type;location;lat;lon;timestamp;pressure;altitude;pressure_sealevel;temperature;humidity
3960;BME280;1994;48.640;8.894;2023-03-18T00:00:43;95703.91;;;11.97;55.39
3960;BME280;1994;48.640;8.894;2023-03-18T00:03:10;95703.13;;;11.97;55.63
3960;BME280;1994;48.640;8.894;2023-03-18T00:05:36;95704.13;;;11.91;55.58
3960;BME280;1994;48.640;8.894;2023-03-18T00:08:04;95703.03;;;11.77;55.74
3960;BME280;1994;48.640;8.894;2023-03-18T00:10:31;95708.72;;;11.74;55.41
3960;BME280;1994;48.640;8.894;2023-03-18T00:12:58;95707.34;;;11.66;55.96
3960;BME280;1994;48.640;8.894;2023-03-18T00:15:24;95712.34;;;11.73;55.81
3960;BME280;1994;48.640;8.894;2023-03-18T00:17:50;95722.16;;;11.66;56.06
3960;BME280;1994;48.640;8.894;2023-03-18T00:20:17;95722.00;;;11.51;56.19
3960;BME280;1994;48.640;8.894;2023-03-18T00:22:54;95729.28;;;11.54;56.21
3960;BME280;1994;48.640;8.894;2023-03-18T00:25:22;95729.34;;;11.59;55.75
3960;BME280;1994;48.640;8.894;2023-03-18T00:27:47;95731.47;;;11.62;56.19
3960;BME280;1994;48.640;8.894;2023-03-18T00:30:13;95729.91;;;11.61;56.03
3960;BME280;1994;48.640;8.894;2023-03-18T00:32:39;95733.59;;;11.70;55.88
3960;BME280;1994;48.640;8.894;2023-03-18T00:35:06;95729.84;;;11.56;56.43
3960;BME280;1994;48.640;8.894;2023-03-18T00:37:32;95741.28;;;11.60;56.81
3960;BME280;1994;48.640;8.894;2023-03-18T00:40:05;95742.81;;;11.56;56.99
3960;BME280;1994;48.640;8.894;2023-03-18T00:42:37;95736.75;;;11.45;57.53
3960;BME280;1994;48.640;8.894;2023-03-18T00:45:09;95744.31;;;11.52;57.63
3960;BME280;1994;48.640;8.894;2023-03-18T00:47:36;95739.50;;;11.34;58.30
3960;BME280;1994;48.640;8.894;2023-03-18T00:50:05;95746.03;;;11.36;57.85
3960;BME280;1994;48.640;8.894;2023-03-18T00:52:33;95752.53;;;11.39;57.65
3960;BME280;1994;48.640;8.894;2023-03-18T00:54:59;95748.38;;;11.43;57.68
3960;BME280;1994;48.640;8.894;2023-03-18T00:57:26;95754.56;;;11.37;57.88
3960;BME280;1994;48.640;8.894;2023-03-18T00:59:53;95755.59;;;11.36;57.95
3960;BME280;1994;48.640;8.894;2023-03-18T01:02:19;95748.31;;;11.33;58.54
3960;BME280;1994;48.640;8.894;2023-03-18T01:04:45;95755.22;;;11.22;58.70
3960;BME280;1994;48.640;8.894;2023-03-18T01:07:11;95753.91;;;11.20;58.57
3960;BME280;1994;48.640;8.894;2023-03-18T01:09:38;95751.34;;;11.25;58.39
3960;BME280;1994;48.640;8.894;2023-03-18T01:12:07;95746.16;;;11.25;58.37
3960;BME280;1994;48.640;8.894;2023-03-18T01:14:34;95735.38;;;11.33;58.24
3960;BME280;1994;48.640;8.894;2023-03-18T01:17:01;95740.00;;;11.31;58.14
3960;BME280;1994;48.640;8.894;2023-03-18T01:19:27;95741.06;;;11.35;58.03
3960;BME280;1994;48.640;8.894;2023-03-18T01:21:54;95729.66;;;11.36;57.30
3960;BME280;1994;48.640;8.894;2023-03-18T01:24:19;95732.81;;;11.43;57.40
3960;BME280;1994;48.640;8.894;2023-03-18T01:26:47;95738.28;;;11.46;57.24
3960;BME280;1994;48.640;8.894;2023-03-18T01:29:13;95738.59;;;11.50;56.52
3960;BME280;1994;48.640;8.894;2023-03-18T01:31:38;95743.28;;;11.53;56.34
3960;BME280;1994;48.640;8.894;2023-03-18T01:34:05;95748.00;;;11.56;55.80
3960;BME280;1994;48.640;8.894;2023-03-18T01:36:31;95747.31;;;11.65;55.98
3960;BME280;1994;48.640;8.894;2023-03-18T01:38:57;95754.84;;;11.67;55.53
3960;BME280;1994;48.640;8.894;2023-03-18T01:41:26;95740.84;;;11.68;55.70
3960;BME280;1994;48.640;8.894;2023-03-18T01:43:53;95739.81;;;11.69;55.97
3960;BME280;1994;48.640;8.894;2023-03-18T01:46:46;95742.38;;;11.64;55.21
3960;BME280;1994;48.640;8.894;2023-03-18T01:49:30;95746.50;;;11.65;54.99
3960;BME280;1994;48.640;8.894;2023-03-18T01:55:06;95730.47;;;11.68;54.11
3960;BME280;1994;48.640;8.894;2023-03-18T01:57:34;95734.16;;;11.77;53.92
3960;BME280;1994;48.640;8.894;2023-03-18T02:00:01;95732.63;;;11.81;54.08
3960;BME280;1994;48.640;8.894;2023-03-18T02:02:28;95727.91;;;11.73;53.81
3960;BME280;1994;48.640;8.894;2023-03-18T02:05:00;95725.75;;;11.65;53.94
3960;BME280;1994;48.640;8.894;2023-03-18T02:07:31;95723.59;;;11.57;54.03
3960;BME280;1994;48.640;8.894;2023-03-18T02:10:04;95735.09;;;11.61;54.15
3960;BME280;1994;48.640;8.894;2023-03-18T02:12:34;95738.22;;;11.63;54.16
3960;BME280;1994;48.640;8.894;2023-03-18T02:15:08;95741.28;;;11.60;54.52
3960;BME280;1994;48.640;8.894;2023-03-18T02:17:40;95740.22;;;11.56;55.16
3960;BME280;1994;48.640;8.894;2023-03-18T02:20:37;95730.69;;;11.35;55.87
3960;BME280;1994;48.640;8.894;2023-03-18T02:28:40;95732.34;;;11.46;55.30
3960;BME280;1994;48.640;8.894;2023-03-18T02:31:11;95736.97;;;11.39;55.22
3960;BME280;1994;48.640;8.894;2023-03-18T02:33:39;95726.00;;;11.32;55.83
3960;BME280;1994;48.640;8.894;2023-03-18T02:36:18;95728.72;;;11.47;55.46
3960;BME280;1994;48.640;8.894;2023-03-18T02:38:45;95729.47;;;11.42;56.06
3960;BME280;1994;48.640;8.894;2023-03-18T02:41:19;95729.19;;;11.39;56.25
3960;BME280;1994;48.640;8.894;2023-03-18T02:43:47;95723.16;;;11.33;56.38
3960;BME280;1994;48.640;8.894;2023-03-18T02:48:56;95738.63;;;11.23;55.88
3960;BME280;1994;48.640;8.894;2023-03-18T02:51:24;95727.59;;;11.33;55.95
3960;BME280;1994;48.640;8.894;2023-03-18T02:53:58;95729.56;;;11.26;55.77
3960;BME280;1994;48.640;8.894;2023-03-18T02:56:26;95720.72;;;11.22;55.64
3960;BME280;1994;48.640;8.894;2023-03-18T02:58:51;95732.91;;;11.21;55.79
3960;BME280;1994;48.640;8.894;2023-03-18T03:01:18;95727.50;;;11.23;56.07
3960;BME280;1994;48.640;8.894;2023-03-18T03:03:44;95732.06;;;11.16;56.36
3960;BME280;1994;48.640;8.894;2023-03-18T03:06:11;95742.44;;;11.16;56.35
3960;BME280;1994;48.640;8.894;2023-03-18T03:08:37;95741.44;;;11.17;56.81
3960;BME280;1994;48.640;8.894;2023-03-18T03:11:04;95746.63;;;11.17;56.78
3960;BME280;1994;48.640;8.894;2023-03-18T03:14:02;95746.94;;;10.99;56.71
3960;BME280;1994;48.640;8.894;2023-03-18T03:16:28;95745.78;;;10.85;57.20
3960;BME280;1994;48.640;8.894;2023-03-18T03:18:55;95749.88;;;10.81;57.40
3960;BME280;1994;48.640;8.894;2023-03-18T03:21:20;95746.44;;;10.97;57.35
3960;BME280;1994;48.640;8.894;2023-03-18T03:23:47;95747.41;;;10.91;57.05
3960;BME280;1994;48.640;8.894;2023-03-18T03:26:14;95750.56;;;10.71;57.83
3960;BME280;1994;48.640;8.894;2023-03-18T03:28:41;95746.78;;;10.36;59.40
3960;BME280;1994;48.640;8.894;2023-03-18T03:31:07;95757.97;;;10.20;60.32
3960;BME280;1994;48.640;8.894;2023-03-18T03:33:40;95759.16;;;10.34;60.28
3960;BME280;1994;48.640;8.894;2023-03-18T03:36:11;95751.75;;;10.42;60.19
3960;BME280;1994;48.640;8.894;2023-03-18T03:38:38;95766.09;;;10.28;61.12
3960;BME280;1994;48.640;8.894;2023-03-18T03:41:04;95769.41;;;10.24;61.70
3960;BME280;1994;48.640;8.894;2023-03-18T03:43:31;95769.09;;;10.20;62.17
3960;BME280;1994;48.640;8.894;2023-03-18T03:45:58;95764.09;;;10.14;62.33
3960;BME280;1994;48.640;8.894;2023-03-18T03:48:24;95751.09;;;10.09;62.50
3960;BME280;1994;48.640;8.894;2023-03-18T03:50:50;95751.63;;;10.11;62.16
3960;BME280;1994;48.640;8.894;2023-03-18T03:53:16;95754.88;;;10.23;61.01
3960;BME280;1994;48.640;8.894;2023-03-18T03:55:42;95751.09;;;10.30;60.34
3960;BME280;1994;48.640;8.894;2023-03-18T03:58:08;95748.66;;;10.19;60.12
3960;BME280;1994;48.640;8.894;2023-03-18T04:00:35;95766.19;;;10.17;59.91
3960;BME280;1994;48.640;8.894;2023-03-18T04:03:01;95760.63;;;10.25;59.36
3960;BME280;1994;48.640;8.894;2023-03-18T04:05:27;95761.22;;;10.32;59.48
3960;BME280;1994;48.640;8.894;2023-03-18T04:07:54;95760.06;;;10.23;59.58
3960;BME280;1994;48.640;8.894;2023-03-18T04:10:24;95760.63;;;10.25;59.65
3960;BME280;1994;48.640;8.894;2023-03-18T04:12:51;95765.38;;;10.33;59.17
3960;BME280;1994;48.640;8.894;2023-03-18T04:15:19;95772.66;;;10.36;59.18
3960;BME280;1994;48.640;8.894;2023-03-18T04:17:47;95768.56;;;10.40;58.69
3960;BME280;1994;48.640;8.894;2023-03-18T04:20:14;95762.78;;;10.33;58.89
3960;BME280;1994;48.640;8.894;2023-03-18T04:22:42;95763.75;;;10.27;59.13
3960;BME280;1994;48.640;8.894;2023-03-18T04:25:09;95761.38;;;10.25;59.14
3960;BME280;1994;48.640;8.894;2023-03-18T04:27:40;95761.69;;;10.29;59.63
3960;BME280;1994;48.640;8.894;2023-03-18T04:30:09;95762.34;;;10.19;59.78
3960;BME280;1994;48.640;8.894;2023-03-18T04:32:35;95769.66;;;10.22;60.07
3960;BME280;1994;48.640;8.894;2023-03-18T04:35:01;95764.25;;;10.24;59.90
3960;BME280;1994;48.640;8.894;2023-03-18T04:37:27;95758.28;;;10.07;60.51
3960;BME280;1994;48.640;8.894;2023-03-18T04:39:53;95756.09;;;9.99;61.13
3960;BME280;1994;48.640;8.894;2023-03-18T04:42:19;95765.84;;;9.92;61.30
3960;BME280;1994;48.640;8.894;2023-03-18T04:44:45;95770.44;;;9.90;61.36
3960;BME280;1994;48.640;8.894;2023-03-18T04:47:11;95770.69;;;9.88;61.33
3960;BME280;1994;48.640;8.894;2023-03-18T04:49:38;95777.66;;;9.88;61.59
3960;BME280;1994;48.640;8.894;2023-03-18T04:52:04;95777.59;;;9.83;62.27
3960;BME280;1994;48.640;8.894;2023-03-18T04:54:31;95774.47;;;9.81;62.31
3960;BME280;1994;48.640;8.894;2023-03-18T04:56:57;95773.13;;;9.78;61.94
3960;BME280;1994;48.640;8.894;2023-03-18T04:59:23;95766.16;;;9.79;61.94
3960;BME280;1994;48.640;8.894;2023-03-18T05:01:50;95773.91;;;9.79;61.88
3960;BME280;1994;48.640;8.894;2023-03-18T05:04:15;95778.22;;;9.73;61.67
3960;BME280;1994;48.640;8.894;2023-03-18T05:06:42;95775.41;;;9.75;61.70
3960;BME280;1994;48.640;8.894;2023-03-18T05:09:07;95781.59;;;9.74;61.68
3960;BME280;1994;48.640;8.894;2023-03-18T05:11:34;95775.41;;;9.75;61.62
3960;BME280;1994;48.640;8.894;2023-03-18T05:14:00;95771.81;;;9.76;61.53
3960;BME280;1994;48.640;8.894;2023-03-18T05:16:26;95777.94;;;9.70;61.51
3960;BME280;1994;48.640;8.894;2023-03-18T05:18:52;95783.63;;;9.72;61.15
3960;BME280;1994;48.640;8.894;2023-03-18T05:21:18;95787.25;;;9.71;61.50
3960;BME280;1994;48.640;8.894;2023-03-18T05:23:44;95788.66;;;9.62;61.40
3960;BME280;1994;48.640;8.894;2023-03-18T05:26:10;95786.69;;;9.69;61.16
3960;BME280;1994;48.640;8.894;2023-03-18T05:28:37;95785.28;;;9.61;61.44
3960;BME280;1994;48.640;8.894;2023-03-18T05:31:04;95782.00;;;9.66;61.32
3960;BME280;1994;48.640;8.894;2023-03-18T05:33:30;95777.75;;;9.60;61.39
3960;BME280;1994;48.640;8.894;2023-03-18T05:35:57;95784.50;;;9.61;61.60
3960;BME280;1994;48.640;8.894;2023-03-18T05:38:23;95787.47;;;9.53;62.09
3960;BME280;1994;48.640;8.894;2023-03-18T05:40:49;95793.66;;;9.52;62.47
3960;BME280;1994;48.640;8.894;2023-03-18T05:43:14;95790.63;;;9.55;61.98
3960;BME280;1994;48.640;8.894;2023-03-18T05:45:40;95787.00;;;9.56;61.86
3960;BME280;1994;48.640;8.894;2023-03-18T05:48:06;95791.38;;;9.55;62.02
3960;BME280;1994;48.640;8.894;2023-03-18T05:50:36;95785.44;;;9.55;61.97
3960;BME280;1994;48.640;8.894;2023-03-18T05:53:04;95789.50;;;9.51;62.19
3960;BME280;1994;48.640;8.894;2023-03-18T05:55:31;95775.88;;;9.55;62.05
3960;BME280;1994;48.640;8.894;2023-03-18T05:57:57;95779.31;;;9.61;62.19
3960;BME280;1994;48.640;8.894;2023-03-18T06:00:24;95782.44;;;9.63;61.97
3960;BME280;1994;48.640;8.894;2023-03-18T06:02:50;95786.69;;;9.69;62.29
3960;BME280;1994;48.640;8.894;2023-03-18T06:05:20;95789.97;;;9.64;62.21
3960;BME280;1994;48.640;8.894;2023-03-18T06:07:47;95794.22;;;9.54;62.46
3960;BME280;1994;48.640;8.894;2023-03-18T06:10:14;95790.44;;;9.45;62.60
3960;BME280;1994;48.640;8.894;2023-03-18T06:12:40;95792.00;;;9.46;62.59
3960;BME280;1994;48.640;8.894;2023-03-18T06:15:08;95788.75;;;9.50;62.85
3960;BME280;1994;48.640;8.894;2023-03-18T06:17:35;95793.19;;;9.55;62.46
3960;BME280;1994;48.640;8.894;2023-03-18T06:20:03;95798.91;;;9.57;62.69
3960;BME280;1994;48.640;8.894;2023-03-18T06:22:29;95795.28;;;9.58;62.53
3960;BME280;1994;48.640;8.894;2023-03-18T06:24:57;95793.19;;;9.55;62.59
3960;BME280;1994;48.640;8.894;2023-03-18T06:27:23;95798.44;;;9.60;62.48
3960;BME280;1994;48.640;8.894;2023-03-18T06:29:49;95797.03;;;9.69;62.04
3960;BME280;1994;48.640;8.894;2023-03-18T06:32:15;95801.28;;;9.75;61.79
3960;BME280;1994;48.640;8.894;2023-03-18T06:34:41;95804.31;;;9.72;62.04
3960;BME280;1994;48.640;8.894;2023-03-18T06:37:07;95808.56;;;9.78;62.25
3960;BME280;1994;48.640;8.894;2023-03-18T06:39:34;95806.75;;;9.95;62.06
3960;BME280;1994;48.640;8.894;2023-03-18T06:42:00;95802.19;;;10.02;61.34
3960;BME280;1994;48.640;8.894;2023-03-18T06:44:26;95804.00;;;9.85;61.58
3960;BME280;1994;48.640;8.894;2023-03-18T06:46:51;95801.97;;;9.87;61.04
3960;BME280;1994;48.640;8.894;2023-03-18T06:49:18;95800.63;;;10.01;60.57
3960;BME280;1994;48.640;8.894;2023-03-18T06:51:44;95794.53;;;10.07;60.51
3960;BME280;1994;48.640;8.894;2023-03-18T06:54:10;95792.94;;;10.22;60.29
3960;BME280;1994;48.640;8.894;2023-03-18T06:56:36;95798.72;;;10.29;60.60
3960;BME280;1994;48.640;8.894;2023-03-18T06:59:05;95801.69;;;10.38;60.71
3960;BME280;1994;48.640;8.894;2023-03-18T07:01:31;95798.25;;;10.54;60.95
3960;BME280;1994;48.640;8.894;2023-03-18T07:03:58;95789.13;;;10.68;60.96
3960;BME280;1994;48.640;8.894;2023-03-18T07:06:26;95798.66;;;10.89;60.67
3960;BME280;1994;48.640;8.894;2023-03-18T07:08:51;95802.56;;;11.13;59.77
3960;BME280;1994;48.640;8.894;2023-03-18T07:11:19;95797.34;;;11.08;59.49
3960;BME280;1994;48.640;8.894;2023-03-18T07:13:44;95806.66;;;11.09;59.79
3960;BME280;1994;48.640;8.894;2023-03-18T07:16:10;95799.22;;;10.91;59.76
3960;BME280;1994;48.640;8.894;2023-03-18T07:18:36;95804.00;;;11.25;60.19
3960;BME280;1994;48.640;8.894;2023-03-18T07:21:03;95813.56;;;11.25;60.02
3960;BME280;1994;48.640;8.894;2023-03-18T07:23:29;95809.03;;;11.37;59.40
3960;BME280;1994;48.640;8.894;2023-03-18T07:25:55;95823.88;;;11.41;59.74
3960;BME280;1994;48.640;8.894;2023-03-18T07:28:21;95813.97;;;11.65;58.90
3960;BME280;1994;48.640;8.894;2023-03-18T07:30:47;95814.75;;;11.39;59.78
3960;BME280;1994;48.640;8.894;2023-03-18T07:33:14;95819.66;;;11.62;59.28
3960;BME280;1994;48.640;8.894;2023-03-18T07:35:40;95823.44;;;11.81;58.35
3960;BME280;1994;48.640;8.894;2023-03-18T07:38:07;95823.03;;;11.94;57.57
3960;BME280;1994;48.640;8.894;2023-03-18T07:40:34;95826.13;;;11.91;57.33
3960;BME280;1994;48.640;8.894;2023-03-18T07:43:00;95824.91;;;12.45;56.22
3960;BME280;1994;48.640;8.894;2023-03-18T07:45:26;95818.56;;;12.21;58.05
3960;BME280;1994;48.640;8.894;2023-03-18T07:47:52;95821.78;;;12.38;57.42
3960;BME280;1994;48.640;8.894;2023-03-18T07:50:18;95827.41;;;12.30;56.74
3960;BME280;1994;48.640;8.894;2023-03-18T07:52:44;95824.88;;;12.40;55.88
3960;BME280;1994;48.640;8.894;2023-03-18T07:55:10;95825.53;;;12.62;56.18
3960;BME280;1994;48.640;8.894;2023-03-18T07:57:37;95823.94;;;12.56;55.00
3960;BME280;1994;48.640;8.894;2023-03-18T08:00:08;95824.44;;;12.58;54.71
3960;BME280;1994;48.640;8.894;2023-03-18T08:02:35;95829.38;;;13.11;54.46
3960;BME280;1994;48.640;8.894;2023-03-18T08:05:02;95832.06;;;13.31;51.90
3960;BME280;1994;48.640;8.894;2023-03-18T08:07:28;95825.25;;;13.20;52.15
3960;BME280;1994;48.640;8.894;2023-03-18T08:09:54;95829.78;;;13.64;50.13
3960;BME280;1994;48.640;8.894;2023-03-18T08:12:20;95841.75;;;14.05;49.79
3960;BME280;1994;48.640;8.894;2023-03-18T08:14:46;95842.00;;;14.39;49.68
3960;BME280;1994;48.640;8.894;2023-03-18T08:17:13;95837.94;;;15.50;46.97
3960;BME280;1994;48.640;8.894;2023-03-18T08:19:39;95839.84;;;16.92;43.66
3960;BME280;1994;48.640;8.894;2023-03-18T08:22:05;95835.34;;;18.27;40.07
3960;BME280;1994;48.640;8.894;2023-03-18T08:24:30;95839.34;;;19.24;37.85
3960;BME280;1994;48.640;8.894;2023-03-18T08:26:57;95830.56;;;19.42;36.39
3960;BME280;1994;48.640;8.894;2023-03-18T08:29:23;95834.63;;;19.48;36.38
3960;BME280;1994;48.640;8.894;2023-03-18T08:31:48;95835.41;;;20.06;35.48
3960;BME280;1994;48.640;8.894;2023-03-18T08:34:14;95826.19;;;19.73;34.84
3960;BME280;1994;48.640;8.894;2023-03-18T08:36:41;95834.81;;;20.09;34.94
3960;BME280;1994;48.640;8.894;2023-03-18T08:39:08;95841.03;;;20.65;33.89
3960;BME280;1994;48.640;8.894;2023-03-18T08:41:34;95827.38;;;21.50;32.90
3960;BME280;1994;48.640;8.894;2023-03-18T08:44:02;95828.00;;;22.15;32.13
3960;BME280;1994;48.640;8.894;2023-03-18T08:46:30;95828.13;;;22.27;31.45
3960;BME280;1994;48.640;8.894;2023-03-18T08:48:56;95837.53;;;21.09;32.14
3960;BME280;1994;48.640;8.894;2023-03-18T08:51:24;95832.56;;;21.16;31.95
3960;BME280;1994;48.640;8.894;2023-03-18T08:53:50;95834.94;;;20.87;32.95
3960;BME280;1994;48.640;8.894;2023-03-18T08:56:16;95830.72;;;21.08;32.93
3960;BME280;1994;48.640;8.894;2023-03-18T08:58:42;95828.66;;;22.12;32.25
3960;BME280;1994;48.640;8.894;2023-03-18T09:01:11;95831.09;;;22.88;30.72
3960;BME280;1994;48.640;8.894;2023-03-18T09:03:36;95832.50;;;22.86;30.95
3960;BME280;1994;48.640;8.894;2023-03-18T09:06:03;95828.47;;;22.80;30.87
3960;BME280;1994;48.640;8.894;2023-03-18T09:08:29;95827.78;;;23.00;30.33
3960;BME280;1994;48.640;8.894;2023-03-18T09:10:56;95829.38;;;22.21;30.01
3960;BME280;1994;48.640;8.894;2023-03-18T09:13:22;95824.28;;;22.16;31.48
3960;BME280;1994;48.640;8.894;2023-03-18T09:15:48;95823.41;;;23.04;29.74
3960;BME280;1994;48.640;8.894;2023-03-18T09:18:16;95815.94;;;23.06;29.08
3960;BME280;1994;48.640;8.894;2023-03-18T09:20:43;95818.25;;;22.70;30.39
3960;BME280;1994;48.640;8.894;2023-03-18T09:23:13;95817.41;;;23.24;27.95
3960;BME280;1994;48.640;8.894;2023-03-18T09:25:40;95817.28;;;22.83;30.10
3960;BME280;1994;48.640;8.894;2023-03-18T09:28:07;95814.19;;;23.18;29.25
3960;BME280;1994;48.640;8.894;2023-03-18T09:30:33;95815.50;;;24.15;28.31
3960;BME280;1994;48.640;8.894;2023-03-18T09:32:59;95814.56;;;25.00;28.61
3960;BME280;1994;48.640;8.894;2023-03-18T09:35:24;95820.00;;;23.53;29.17
3960;BME280;1994;48.640;8.894;2023-03-18T09:37:50;95809.84;;;24.49;28.32
3960;BME280;1994;48.640;8.894;2023-03-18T09:40:35;95809.97;;;24.08;28.17
3960;BME280;1994;48.640;8.894;2023-03-18T09:54:40;95807.25;;;23.55;28.49
3960;BME280;1994;48.640;8.894;2023-03-18T09:57:27;95801.59;;;24.18;28.57
3960;BME280;1994;48.640;8.894;2023-03-18T10:00:05;95802.19;;;23.82;28.05
3960;BME280;1994;48.640;8.894;2023-03-18T10:03:10;95804.84;;;24.80;28.04
3960;BME280;1994;48.640;8.894;2023-03-18T10:05:51;95797.56;;;25.13;27.09
3960;BME280;1994;48.640;8.894;2023-03-18T10:11:41;95801.44;;;26.34;26.06
3960;BME280;1994;48.640;8.894;2023-03-18T10:14:44;95794.66;;;25.93;26.45
3960;BME280;1994;48.640;8.894;2023-03-18T10:17:36;95796.13;;;25.15;26.37
3960;BME280;1994;48.640;8.894;2023-03-18T10:23:22;95802.13;;;24.56;26.79
3960;BME280;1994;48.640;8.894;2023-03-18T10:25:54;95808.44;;;23.08;27.47
3960;BME280;1994;48.640;8.894;2023-03-18T10:28:47;95800.63;;;23.20;28.17
3960;BME280;1994;48.640;8.894;2023-03-18T10:37:13;95800.00;;;23.23;27.83
3960;BME280;1994;48.640;8.894;2023-03-18T10:39:42;95800.63;;;23.49;27.59
3960;BME280;1994;48.640;8.894;2023-03-18T10:42:31;95797.16;;;24.10;26.57
3960;BME280;1994;48.640;8.894;2023-03-18T10:55:58;95785.84;;;23.89;26.89
3960;BME280;1994;48.640;8.894;2023-03-18T10:58:29;95782.13;;;24.34;26.06
3960;BME280;1994;48.640;8.894;2023-03-18T11:00:55;95779.25;;;24.84;24.58
3960;BME280;1994;48.640;8.894;2023-03-18T11:03:29;95778.41;;;25.55;23.84
3960;BME280;1994;48.640;8.894;2023-03-18T11:05:58;95772.56;;;25.38;23.97
3960;BME280;1994;48.640;8.894;2023-03-18T11:08:38;95769.34;;;25.84;24.99
3960;BME280;1994;48.640;8.894;2023-03-18T11:11:22;95770.13;;;26.12;23.26
3960;BME280;1994;48.640;8.894;2023-03-18T11:13:53;95773.00;;;24.56;25.11
3960;BME280;1994;48.640;8.894;2023-03-18T11:16:38;95766.16;;;24.55;25.37
3960;BME280;1994;48.640;8.894;2023-03-18T11:19:38;95760.56;;;24.68;25.42
3960;BME280;1994;48.640;8.894;2023-03-18T11:22:23;95760.69;;;25.99;24.41
3960;BME280;1994;48.640;8.894;2023-03-18T11:25:17;95755.47;;;26.02;23.37
3960;BME280;1994;48.640;8.894;2023-03-18T11:27:49;95761.22;;;25.65;24.35
3960;BME280;1994;48.640;8.894;2023-03-18T11:30:29;95765.16;;;25.43;24.26
3960;BME280;1994;48.640;8.894;2023-03-18T11:33:14;95756.84;;;26.12;23.37
3960;BME280;1994;48.640;8.894;2023-03-18T11:38:30;95754.94;;;24.82;25.37
3960;BME280;1994;48.640;8.894;2023-03-18T11:41:22;95758.22;;;25.15;23.93
3960;BME280;1994;48.640;8.894;2023-03-18T11:44:05;95754.28;;;24.61;24.46
3960;BME280;1994;48.640;8.894;2023-03-18T11:46:50;95752.09;;;24.63;25.67
3960;BME280;1994;48.640;8.894;2023-03-18T11:49:25;95748.53;;;22.25;28.39
3960;BME280;1994;48.640;8.894;2023-03-18T11:52:26;95759.97;;;22.46;28.67
3960;BME280;1994;48.640;8.894;2023-03-18T12:07:23;95732.56;;;23.17;26.71
3960;BME280;1994;48.640;8.894;2023-03-18T12:13:17;95728.13;;;22.80;27.19
3960;BME280;1994;48.640;8.894;2023-03-18T12:15:59;95722.97;;;22.54;27.68
3960;BME280;1994;48.640;8.894;2023-03-18T12:21:46;95721.88;;;22.09;27.53
3960;BME280;1994;48.640;8.894;2023-03-18T12:24:38;95717.09;;;22.03;27.11
3960;BME280;1994;48.640;8.894;2023-03-18T12:39:26;95706.91;;;22.22;27.09
3960;BME280;1994;48.640;8.894;2023-03-18T12:42:15;95705.97;;;22.35;27.94
3960;BME280;1994;48.640;8.894;2023-03-18T12:45:11;95711.47;;;22.13;28.89
3960;BME280;1994;48.640;8.894;2023-03-18T12:50:35;95703.66;;;21.79;28.67
3960;BME280;1994;48.640;8.894;2023-03-18T12:53:17;95700.69;;;21.80;27.53
3960;BME280;1994;48.640;8.894;2023-03-18T12:55:51;95696.75;;;22.12;26.34
3960;BME280;1994;48.640;8.894;2023-03-18T12:58:41;95692.63;;;23.18;25.88
3960;BME280;1994;48.640;8.894;2023-03-18T13:01:18;95690.03;;;23.51;24.63
3960;BME280;1994;48.640;8.894;2023-03-18T13:09:35;95688.91;;;21.78;25.34
3960;BME280;1994;48.640;8.894;2023-03-18T13:17:48;95694.66;;;21.46;25.60
3960;BME280;1994;48.640;8.894;2023-03-18T13:20:24;95686.59;;;21.51;27.68
3960;BME280;1994;48.640;8.894;2023-03-18T13:22:59;95686.28;;;21.61;26.83
3960;BME280;1994;48.640;8.894;2023-03-18T13:26:09;95678.66;;;20.74;26.76
3960;BME280;1994;48.640;8.894;2023-03-18T13:29:12;95686.66;;;19.83;28.20
3960;BME280;1994;48.640;8.894;2023-03-18T13:31:49;95680.00;;;20.55;28.23
3960;BME280;1994;48.640;8.894;2023-03-18T13:38:25;95681.97;;;21.31;26.64
3960;BME280;1994;48.640;8.894;2023-03-18T13:43:59;95686.59;;;21.51;25.96
3960;BME280;1994;48.640;8.894;2023-03-18T13:46:30;95689.06;;;21.56;26.77
3960;BME280;1994;48.640;8.894;2023-03-18T13:49:00;95680.88;;;21.23;26.92
3960;BME280;1994;48.640;8.894;2023-03-18T13:53:58;95680.19;;;20.67;27.30
3960;BME280;1994;48.640;8.894;2023-03-18T13:56:52;95674.09;;;21.05;27.08
3960;BME280;1994;48.640;8.894;2023-03-18T14:07:56;95661.81;;;20.19;29.46
3960;BME280;1994;48.640;8.894;2023-03-18T14:10:23;95666.91;;;20.16;28.19
3960;BME280;1994;48.640;8.894;2023-03-18T14:12:49;95670.97;;;20.30;28.32
3960;BME280;1994;48.640;8.894;2023-03-18T14:15:38;95671.09;;;19.95;29.18
3960;BME280;1994;48.640;8.894;2023-03-18T14:18:20;95658.91;;;19.99;29.58
3960;BME280;1994;48.640;8.894;2023-03-18T14:20:53;95660.59;;;19.95;30.37
3960;BME280;1994;48.640;8.894;2023-03-18T14:23:41;95660.13;;;20.01;30.21
3960;BME280;1994;48.640;8.894;2023-03-18T14:26:25;95668.34;;;19.69;30.54
3960;BME280;1994;48.640;8.894;2023-03-18T14:34:30;95662.22;;;19.52;29.96
3960;BME280;1994;48.640;8.894;2023-03-18T14:39:36;95654.88;;;19.71;29.27
3960;BME280;1994;48.640;8.894;2023-03-18T14:45:27;95647.16;;;19.22;30.73
3960;BME280;1994;48.640;8.894;2023-03-18T14:48:15;95643.22;;;19.33;29.66
3960;BME280;1994;48.640;8.894;2023-03-18T14:50:52;95647.22;;;19.30;29.77
3960;BME280;1994;48.640;8.894;2023-03-18T14:53:43;95647.63;;;19.68;30.37
3960;BME280;1994;48.640;8.894;2023-03-18T14:56:22;95644.38;;;19.71;31.13
3960;BME280;1994;48.640;8.894;2023-03-18T14:58:51;95644.88;;;19.73;32.09
3960;BME280;1994;48.640;8.894;2023-03-18T15:01:38;95649.28;;;19.64;29.99
3960;BME280;1994;48.640;8.894;2023-03-18T15:04:09;95640.09;;;19.53;30.42
3960;BME280;1994;48.640;8.894;2023-03-18T15:06:38;95642.81;;;19.70;29.46
3960;BME280;1994;48.640;8.894;2023-03-18T15:09:08;95636.91;;;19.56;29.23
3960;BME280;1994;48.640;8.894;2023-03-18T15:11:41;95640.22;;;19.48;30.58
3960;BME280;1994;48.640;8.894;2023-03-18T15:14:37;95631.72;;;19.42;29.34
3960;BME280;1994;48.640;8.894;2023-03-18T15:17:14;95626.94;;;19.75;29.63
3960;BME280;1994;48.640;8.894;2023-03-18T15:19:42;95625.47;;;19.91;29.13
3960;BME280;1994;48.640;8.894;2023-03-18T15:22:08;95628.59;;;20.01;28.91
3960;BME280;1994;48.640;8.894;2023-03-18T15:24:38;95618.78;;;20.15;28.75
3960;BME280;1994;48.640;8.894;2023-03-18T15:27:18;95614.47;;;20.19;29.24
3960;BME280;1994;48.640;8.894;2023-03-18T15:29:54;95613.84;;;20.22;29.33
3960;BME280;1994;48.640;8.894;2023-03-18T15:32:41;95617.13;;;20.28;29.20
3960;BME280;1994;48.640;8.894;2023-03-18T15:37:43;95630.41;;;20.23;30.02
3960;BME280;1994;48.640;8.894;2023-03-18T15:40:32;95618.94;;;20.19;30.29
3960;BME280;1994;48.640;8.894;2023-03-18T15:43:30;95616.44;;;20.14;29.94
3960;BME280;1994;48.640;8.894;2023-03-18T15:46:06;95620.22;;;19.99;29.27
3960;BME280;1994;48.640;8.894;2023-03-18T15:48:43;95614.81;;;19.96;29.05
3960;BME280;1994;48.640;8.894;2023-03-18T15:51:40;95627.38;;;19.99;29.78